Time;durP1;ratioP1;P1;durP2;ratioP2;P2;SDS_P1;SDS_P2;PMS_P1;PMS_P2;Temp;Humidity;BMP_temperature;BMP_pressure;BME280_temperature;BME280_humidity;BME280_pressure;Samples;Min_cycle;Max_cycle;Signal;HPM_P1;HPM_P2
2020/12/23 00:02:12;;;;;;;4.07;2.50;;;12.60;99.90;;;;;;5052923;28;20413;-52
2020/12/23 00:04:38;;;;;;;5.20;2.30;;;13.90;99.90;;;;;;5052434;28;20389;-53
2020/12/23 00:07:07;;;;;;;3.60;2.50;;;12.80;99.90;;;;;;5052769;28;20404;-51
2020/12/23 00:09:32;;;;;;;3.37;2.50;;;12.80;99.90;;;;;;5051990;28;20480;-51
2020/12/23 00:11:58;;;;;;;3.53;2.30;;;12.90;99.90;;;;;;5051693;28;20532;-51
2020/12/23 00:14:24;;;;;;;3.20;2.40;;;12.90;99.90;;;;;;5053907;28;20870;-51
2020/12/23 00:16:50;;;;;;;3.65;2.60;;;13.00;99.90;;;;;;5052003;28;20393;-51
2020/12/23 00:19:15;;;;;;;3.90;2.57;;;13.10;99.90;;;;;;5052065;28;20790;-51
2020/12/23 00:21:41;;;;;;;3.97;2.65;;;13.00;99.90;;;;;;5052486;28;20374;-51
2020/12/23 00:24:07;;;;;;;3.10;2.43;;;13.00;99.90;;;;;;5051579;28;20409;-51
2020/12/23 00:26:32;;;;;;;3.10;2.30;;;13.00;99.90;;;;;;5052842;28;20801;-51
2020/12/23 00:28:58;;;;;;;3.70;2.40;;;13.10;99.90;;;;;;5051364;28;21131;-54
2020/12/23 00:31:24;;;;;;;4.00;2.83;;;13.20;99.90;;;;;;5049493;28;20402;-51
2020/12/23 00:33:49;;;;;;;3.40;2.50;;;13.20;99.90;;;;;;5051563;28;20906;-52
2020/12/23 00:36:15;;;;;;;4.03;2.40;;;13.20;99.90;;;;;;5052606;28;20409;-51
2020/12/23 00:38:41;;;;;;;4.00;2.60;;;13.20;99.90;;;;;;5049471;28;20394;-51
2020/12/23 00:41:08;;;;;;;4.07;2.40;;;13.20;99.90;;;;;;5052297;28;20602;-52
2020/12/23 00:43:34;;;;;;;4.00;2.28;;;13.20;99.90;;;;;;5050413;28;20440;-52
2020/12/23 00:46:00;;;;;;;3.10;2.20;;;13.40;99.90;;;;;;5051781;28;20860;-52
2020/12/23 00:48:25;;;;;;;3.17;2.20;;;13.40;99.90;;;;;;5051846;28;20397;-52
2020/12/23 00:50:51;;;;;;;3.60;2.47;;;13.40;99.90;;;;;;5050697;28;20762;-52
2020/12/23 00:53:17;;;;;;;2.90;2.00;;;13.40;99.90;;;;;;5052080;28;20389;-52
2020/12/23 00:55:42;;;;;;;5.10;3.10;;;13.60;99.90;;;;;;5050303;28;20751;-52
2020/12/23 00:58:08;;;;;;;3.50;2.20;;;13.60;99.90;;;;;;5052414;28;20460;-51
2020/12/23 01:00:33;;;;;;;3.40;2.30;;;13.60;99.90;;;;;;5051543;28;20503;-52
2020/12/23 01:02:59;;;;;;;3.20;2.20;;;13.50;99.90;;;;;;5050284;28;20591;-52
2020/12/23 01:05:25;;;;;;;3.27;2.10;;;13.60;99.90;;;;;;5050724;28;20496;-51
2020/12/23 01:07:50;;;;;;;3.50;2.20;;;13.70;99.90;;;;;;5050355;28;20808;-52
2020/12/23 01:10:16;;;;;;;3.60;2.30;;;13.70;99.90;;;;;;5051260;28;20406;-51
2020/12/23 01:12:42;;;;;;;3.78;2.38;;;13.70;99.90;;;;;;5051799;28;20388;-52
2020/12/23 01:15:08;;;;;;;3.40;2.15;;;13.60;99.90;;;;;;5051642;28;20474;-52
2020/12/23 01:17:34;;;;;;;3.60;2.30;;;13.60;99.90;;;;;;5050668;28;20401;-52
2020/12/23 01:20:01;;;;;;;4.75;2.30;;;13.70;99.90;;;;;;5051209;28;20392;-51
2020/12/23 01:22:27;;;;;;;4.32;2.20;;;13.70;99.90;;;;;;5050163;28;20400;-51
2020/12/23 01:24:52;;;;;;;4.10;1.80;;;13.70;99.90;;;;;;5049160;28;20398;-52
2020/12/23 01:27:18;;;;;;;3.60;2.10;;;13.70;99.90;;;;;;5051779;28;20386;-51
2020/12/23 01:29:44;;;;;;;3.20;2.00;;;13.70;99.90;;;;;;5049986;28;20452;-51
2020/12/23 01:32:09;;;;;;;3.27;1.90;;;13.70;99.90;;;;;;5051775;28;20394;-52
2020/12/23 01:34:35;;;;;;;3.17;1.90;;;13.90;99.90;;;;;;5051962;28;20758;-51
2020/12/23 01:37:00;;;;;;;3.15;2.00;;;13.80;99.90;;;;;;5049748;28;20958;-51
2020/12/23 01:39:27;;;;;;;4.00;1.90;;;13.90;99.90;;;;;;5051084;28;20465;-51
2020/12/23 01:41:57;;;;;;;3.00;1.90;;;13.90;99.90;;;;;;5049775;28;20393;-52
2020/12/23 01:44:23;;;;;;;3.50;1.65;;;13.90;99.90;;;;;;5051323;28;20444;-51
2020/12/23 01:46:50;;;;;;;2.95;1.40;;;14.00;99.90;;;;;;5049051;28;20401;-53
2020/12/23 01:49:16;;;;;;;3.10;1.40;;;14.00;99.90;;;;;;5051138;28;20723;-52
2020/12/23 01:51:43;;;;;;;3.10;1.30;;;14.00;99.90;;;;;;5049147;28;20397;-52
2020/12/23 01:54:12;;;;;;;2.90;1.00;;;14.10;99.90;;;;;;5051024;28;20474;-51
2020/12/23 01:56:42;;;;;;;3.07;0.90;;;14.10;99.90;;;;;;5051010;28;20862;-56
2020/12/23 01:59:08;;;;;;;3.00;0.90;;;14.20;99.90;;;;;;5050234;28;20405;-52
2020/12/23 02:01:40;;;;;;;3.10;0.80;;;14.20;99.90;;;;;;5049959;28;20531;-53
2020/12/23 02:04:06;;;;;;;2.80;0.90;;;14.30;99.90;;;;;;5049596;28;20433;-52
2020/12/23 02:06:35;;;;;;;2.90;0.90;;;14.30;99.90;;;;;;5050288;28;20432;-52
2020/12/23 02:09:03;;;;;;;4.40;1.00;;;14.20;99.90;;;;;;5050475;28;20386;-52
2020/12/23 02:11:30;;;;;;;3.10;1.00;;;14.20;99.90;;;;;;5049721;28;20393;-52
2020/12/23 02:13:56;;;;;;;3.00;0.90;;;14.10;99.90;;;;;;5049994;28;20447;-52
2020/12/23 02:16:21;;;;;;;3.10;1.00;;;14.20;99.90;;;;;;5049463;28;20934;-52
2020/12/23 02:18:47;;;;;;;3.70;1.10;;;14.30;99.90;;;;;;5064685;28;20755;-52
2020/12/23 02:21:15;;;;;;;3.53;0.90;;;14.10;99.90;;;;;;5049346;28;20782;-52
2020/12/23 02:23:41;;;;;;;2.60;0.80;;;14.10;99.90;;;;;;5049731;28;20421;-56
2020/12/23 02:26:06;;;;;;;2.60;0.70;;;14.10;99.90;;;;;;5049286;28;20409;-52
2020/12/23 02:28:32;;;;;;;3.10;0.80;;;14.10;99.90;;;;;;5050151;28;20469;-52
2020/12/23 02:31:03;;;;;;;2.60;0.70;;;14.00;99.90;;;;;;5048820;28;20484;-52
2020/12/23 02:33:28;;;;;;;2.60;0.70;;;14.10;99.90;;;;;;5049981;28;20495;-52
2020/12/23 02:35:55;;;;;;;3.80;1.00;;;14.10;99.90;;;;;;5046612;28;20593;-53
2020/12/23 02:38:21;;;;;;;2.57;0.70;;;14.20;99.90;;;;;;5050793;28;20814;-52
2020/12/23 02:40:47;;;;;;;3.20;1.00;;;14.20;99.90;;;;;;5050623;28;20383;-52
2020/12/23 02:43:12;;;;;;;2.60;0.75;;;14.20;99.90;;;;;;5048067;28;20826;-53
2020/12/23 02:45:38;;;;;;;3.20;1.00;;;14.20;99.90;;;;;;5050575;28;20799;-52
2020/12/23 02:48:04;;;;;;;3.10;0.70;;;14.10;99.90;;;;;;5037881;28;20400;-54
2020/12/23 02:50:29;;;;;;;2.55;0.60;;;14.10;99.90;;;;;;5049652;28;20439;-52
2020/12/23 02:52:55;;;;;;;2.70;0.90;;;14.00;99.90;;;;;;5047199;28;20421;-52
2020/12/23 02:55:20;;;;;;;9.50;1.10;;;14.00;99.90;;;;;;5046755;28;20397;-53
2020/12/23 02:57:46;;;;;;;4.30;0.70;;;14.10;99.90;;;;;;5048976;28;20447;-53
2020/12/23 03:00:13;;;;;;;3.00;0.80;;;14.20;99.90;;;;;;5049730;28;20385;-52
2020/12/23 03:02:39;;;;;;;2.70;0.80;;;14.10;99.90;;;;;;5048248;28;20439;-52
2020/12/23 03:05:04;;;;;;;4.70;1.03;;;14.10;99.90;;;;;;5048897;28;20875;-52
2020/12/23 03:07:30;;;;;;;2.60;0.70;;;14.20;99.90;;;;;;5048528;28;20493;-52
2020/12/23 03:09:56;;;;;;;3.30;0.70;;;14.00;99.90;;;;;;5048948;28;20927;-53
2020/12/23 03:12:22;;;;;;;3.50;1.10;;;14.00;99.90;;;;;;5048721;28;20388;-53
2020/12/23 03:14:47;;;;;;;3.37;0.90;;;14.10;99.90;;;;;;5046895;28;20457;-52
2020/12/23 03:17:13;;;;;;;3.10;0.80;;;14.10;99.90;;;;;;5048542;28;20390;-52
2020/12/23 03:19:39;;;;;;;3.50;0.90;;;14.10;99.90;;;;;;5050022;28;20390;-52
2020/12/23 03:22:04;;;;;;;3.08;0.80;;;14.10;99.90;;;;;;5047671;28;20417;-52
2020/12/23 03:24:30;;;;;;;3.10;0.82;;;14.10;99.90;;;;;;5048925;28;20466;-52
2020/12/23 03:26:56;;;;;;;2.93;1.00;;;14.10;99.90;;;;;;5048119;28;20748;-52
2020/12/23 03:29:22;;;;;;;2.42;0.70;;;14.10;99.90;;;;;;5050341;28;20374;-53
2020/12/23 03:31:47;;;;;;;3.40;1.00;;;14.10;99.90;;;;;;5047795;28;20980;-52
2020/12/23 03:34:13;;;;;;;3.10;0.83;;;14.20;99.90;;;;;;5049546;28;20794;-52
2020/12/23 03:36:38;;;;;;;2.60;0.70;;;14.20;99.90;;;;;;5048532;28;20397;-52
2020/12/23 03:39:05;;;;;;;3.00;0.83;;;14.10;99.90;;;;;;5048981;28;20947;-52
2020/12/23 03:41:30;;;;;;;2.60;0.75;;;14.20;99.90;;;;;;5048459;28;20436;-53
2020/12/23 03:43:56;;;;;;;3.90;0.70;;;14.30;99.90;;;;;;5048802;28;20890;-53
2020/12/23 03:46:22;;;;;;;3.40;0.80;;;14.30;99.90;;;;;;5049881;28;20480;-52
2020/12/23 03:48:47;;;;;;;2.70;0.90;;;14.40;99.90;;;;;;5047488;28;20400;-53
2020/12/23 03:51:13;;;;;;;3.37;0.80;;;14.40;99.90;;;;;;5049028;28;20398;-52
2020/12/23 03:53:38;;;;;;;2.70;0.80;;;14.40;99.90;;;;;;5048795;28;20484;-52
2020/12/23 03:56:04;;;;;;;2.77;0.70;;;14.40;99.90;;;;;;5047725;28;20447;-53
2020/12/23 03:58:30;;;;;;;4.32;1.13;;;14.40;99.90;;;;;;5049788;28;20385;-52
2020/12/23 04:00:56;;;;;;;2.80;0.90;;;14.40;99.90;;;;;;5047324;28;20438;-53
2020/12/23 04:03:21;;;;;;;3.08;0.90;;;14.40;99.90;;;;;;5049485;28;20736;-53
2020/12/23 04:05:47;;;;;;;3.20;0.80;;;14.40;99.90;;;;;;5048581;28;20397;-55
2020/12/23 04:08:12;;;;;;;2.90;0.93;;;14.50;99.90;;;;;;5048182;28;20394;-52
2020/12/23 04:10:38;;;;;;;3.40;1.10;;;14.50;99.90;;;;;;5049536;28;20389;-52
2020/12/23 04:13:04;;;;;;;3.50;1.20;;;14.60;99.90;;;;;;5048154;28;20934;-52
2020/12/23 04:15:29;;;;;;;3.10;0.90;;;14.70;99.90;;;;;;5051030;28;20446;-52
2020/12/23 04:17:55;;;;;;;3.33;0.90;;;14.80;99.90;;;;;;5051068;28;20731;-53
2020/12/23 04:20:21;;;;;;;2.80;0.98;;;14.90;99.90;;;;;;5053059;28;20404;-52
2020/12/23 04:22:47;;;;;;;2.97;1.00;;;14.80;99.90;;;;;;5051770;28;20871;-56
2020/12/23 04:25:12;;;;;;;3.20;0.90;;;14.90;99.90;;;;;;5051706;28;20405;-52
2020/12/23 04:27:39;;;;;;;4.00;1.00;;;14.90;99.90;;;;;;5052912;28;20381;-52
2020/12/23 04:30:06;;;;;;;3.97;1.10;;;14.90;99.90;;;;;;5050803;28;20465;-52
2020/12/23 04:32:32;;;;;;;2.97;0.93;;;14.90;99.90;;;;;;5052598;28;20490;-52
2020/12/23 04:35:03;;;;;;;3.00;0.80;;;14.90;99.90;;;;;;5052091;28;20411;-53
2020/12/23 04:37:30;;;;;;;3.15;1.10;;;14.80;99.90;;;;;;5051428;28;20396;-53
2020/12/23 04:39:56;;;;;;;3.10;0.98;;;14.80;99.90;;;;;;5052007;28;20380;-52
2020/12/23 04:42:21;;;;;;;3.85;1.00;;;14.70;99.90;;;;;;5051795;28;20394;-53
2020/12/23 04:44:47;;;;;;;2.93;0.80;;;14.60;99.90;;;;;;5051169;28;20404;-56
2020/12/23 04:47:15;;;;;;;3.58;0.90;;;14.70;99.90;;;;;;5051179;28;20750;-52
2020/12/23 04:49:45;;;;;;;3.55;0.80;;;14.70;99.90;;;;;;5052078;28;20912;-52
2020/12/23 04:52:12;;;;;;;2.90;1.00;;;14.50;99.90;;;;;;5051112;28;20400;-53
2020/12/23 04:54:38;;;;;;;2.95;0.90;;;14.40;99.90;;;;;;5052072;28;20406;-52
2020/12/23 04:57:04;;;;;;;3.17;1.08;;;14.40;99.90;;;;;;5050703;28;20751;-52
2020/12/23 04:59:30;;;;;;;4.27;1.20;;;14.50;99.90;;;;;;5052294;28;21036;-52
2020/12/23 05:02:00;;;;;;;3.30;1.10;;;14.40;99.90;;;;;;5049836;28;20405;-52
2020/12/23 05:04:26;;;;;;;4.65;1.10;;;14.30;99.90;;;;;;5052065;28;20964;-52
2020/12/23 05:07:05;;;;;;;3.20;0.90;;;14.20;99.90;;;;;;5051621;28;20465;-52
2020/12/23 05:09:32;;;;;;;2.77;0.80;;;14.10;99.90;;;;;;5051037;28;20499;-52
2020/12/23 05:11:58;;;;;;;3.70;1.00;;;14.00;99.90;;;;;;5049800;28;20390;-53
2020/12/23 05:14:27;;;;;;;4.15;1.00;;;14.00;99.90;;;;;;5051862;28;20424;-53
2020/12/23 05:16:53;;;;;;;3.50;1.10;;;14.00;99.90;;;;;;5051402;28;20423;-52
2020/12/23 05:19:19;;;;;;;2.92;1.10;;;13.80;99.90;;;;;;5032613;28;20746;-52
2020/12/23 05:21:45;;;;;;;3.25;1.10;;;13.80;99.90;;;;;;5052036;28;20384;-55
2020/12/23 05:24:12;;;;;;;3.05;1.00;;;13.80;99.90;;;;;;5051173;28;20796;-52
2020/12/23 05:26:43;;;;;;;3.22;1.10;;;14.00;99.90;;;;;;5050056;28;20400;-52
2020/12/23 05:29:14;;;;;;;3.50;1.10;;;13.90;99.90;;;;;;5051123;28;20967;-53
2020/12/23 05:31:42;;;;;;;3.00;1.10;;;13.80;99.90;;;;;;5050525;28;20482;-52
2020/12/23 05:34:09;;;;;;;2.80;0.90;;;13.80;99.90;;;;;;5050529;28;20398;-53
2020/12/23 05:36:36;;;;;;;3.00;0.90;;;13.90;99.90;;;;;;5050257;28;20483;-52
2020/12/23 05:39:05;;;;;;;2.60;0.77;;;13.80;99.90;;;;;;5050664;28;20827;-52
2020/12/23 05:41:31;;;;;;;3.22;0.90;;;13.90;99.90;;;;;;5050084;28;20393;-52
2020/12/23 05:43:57;;;;;;;3.17;1.00;;;14.00;99.90;;;;;;5050573;28;20404;-52
2020/12/23 05:46:22;;;;;;;2.70;1.00;;;14.00;99.90;;;;;;5049151;28;20755;-52
2020/12/23 05:48:48;;;;;;;3.20;1.10;;;13.90;99.90;;;;;;5050421;28;20377;-52
2020/12/23 05:51:14;;;;;;;3.50;1.08;;;13.90;99.90;;;;;;5050162;28;20397;-52
2020/12/23 05:53:40;;;;;;;2.80;0.90;;;14.00;99.90;;;;;;5050682;28;20397;-53
2020/12/23 05:56:07;;;;;;;3.10;1.00;;;14.00;99.90;;;;;;5049558;28;20532;-52
2020/12/23 05:58:35;;;;;;;4.50;1.00;;;14.00;99.90;;;;;;5051157;28;20381;-52
2020/12/23 06:01:06;;;;;;;3.17;1.10;;;13.90;99.90;;;;;;5048875;28;20401;-52
2020/12/23 06:03:40;;;;;;;2.80;0.87;;;13.90;99.90;;;;;;5051414;28;20453;-52
2020/12/23 06:06:06;;;;;;;2.80;0.90;;;14.00;99.90;;;;;;5048883;28;20645;-52
2020/12/23 06:08:36;;;;;;;2.97;0.90;;;14.00;99.90;;;;;;5050777;28;20869;-52
2020/12/23 06:11:33;;;;;;;3.00;1.00;;;14.10;99.90;;;;;;5049225;28;20404;-53
2020/12/23 06:14:13;;;;;;;2.72;0.93;;;14.00;99.90;;;;;;5049808;28;20396;-52
2020/12/23 06:16:50;;;;;;;3.10;0.90;;;13.90;99.90;;;;;;5050227;28;20441;-54
2020/12/23 06:19:27;;;;;;;3.17;1.00;;;13.90;99.90;;;;;;5051073;28;20377;-52
2020/12/23 06:21:54;;;;;;;2.80;0.88;;;13.90;99.90;;;;;;5049499;28;20397;-52
2020/12/23 06:24:21;;;;;;;2.60;0.80;;;14.00;99.90;;;;;;5050104;28;20424;-52
2020/12/23 06:26:55;;;;;;;3.23;0.90;;;13.90;99.90;;;;;;5050485;28;20393;-56
2020/12/23 06:29:27;;;;;;;2.90;0.90;;;13.80;99.90;;;;;;5049914;28;20393;-52
2020/12/23 06:31:59;;;;;;;2.72;0.90;;;13.80;99.90;;;;;;5049974;28;20397;-52
2020/12/23 06:34:27;;;;;;;2.80;0.80;;;13.90;99.90;;;;;;5048953;28;20413;-52
2020/12/23 06:36:54;;;;;;;2.72;0.90;;;13.90;99.90;;;;;;5048936;28;20377;-52
2020/12/23 06:39:23;;;;;;;2.83;0.90;;;13.90;99.90;;;;;;5050729;28;20469;-52
2020/12/23 06:41:50;;;;;;;3.20;0.90;;;13.90;99.90;;;;;;5048407;28;20405;-56
2020/12/23 06:44:16;;;;;;;3.90;1.00;;;13.90;99.90;;;;;;5050025;28;20401;-52
2020/12/23 06:47:05;;;;;;;3.42;0.90;;;14.00;99.90;;;;;;5049468;28;20408;-52
2020/12/23 06:49:45;;;;;;;4.20;0.70;;;13.80;99.90;;;;;;5050352;28;20378;-52
2020/12/23 06:52:23;;;;;;;3.70;0.80;;;13.80;99.90;;;;;;5049024;28;20733;-53
2020/12/23 06:54:55;;;;;;;2.70;0.80;;;13.90;99.90;;;;;;5049201;28;20904;-53
2020/12/23 06:57:35;;;;;;;2.80;0.80;;;13.90;99.90;;;;;;5042745;28;20941;-52
2020/12/23 07:00:17;;;;;;;2.90;0.90;;;14.00;99.90;;;;;;5047725;28;20914;-52
2020/12/23 07:02:48;;;;;;;4.00;0.90;;;13.80;99.90;;;;;;5048485;28;20409;-52
2020/12/23 07:05:20;;;;;;;2.83;0.95;;;13.80;99.90;;;;;;5049253;28;20382;-52
2020/12/23 07:07:48;;;;;;;3.10;0.82;;;13.70;99.90;;;;;;5049654;28;20377;-55
2020/12/23 07:10:22;;;;;;;4.90;1.10;;;13.60;99.90;;;;;;5048383;28;20393;-52
2020/12/23 07:12:58;;;;;;;2.60;0.80;;;13.60;99.90;;;;;;5049032;28;20377;-56
2020/12/23 07:15:27;;;;;;;2.80;0.90;;;13.50;99.90;;;;;;5049915;28;20416;-53
2020/12/23 07:18:11;;;;;;;3.30;1.17;;;13.40;99.90;;;;;;5047726;28;20897;-53
2020/12/23 07:20:44;;;;;;;3.20;1.02;;;13.40;99.90;;;;;;5049668;28;20389;-54
2020/12/23 07:23:12;;;;;;;3.10;0.90;;;13.40;99.90;;;;;;5049184;28;20401;-54
2020/12/23 07:26:04;;;;;;;2.90;1.00;;;13.40;99.90;;;;;;5048182;28;20441;-53
2020/12/23 07:28:38;;;;;;;3.30;0.90;;;13.40;99.90;;;;;;5042886;28;20408;-51
2020/12/23 07:31:05;;;;;;;2.90;1.10;;;13.40;99.90;;;;;;5046939;28;20417;-52
2020/12/23 07:33:31;;;;;;;2.95;1.10;;;13.40;99.90;;;;;;5049329;28;20418;-52
2020/12/23 07:35:58;;;;;;;3.13;1.02;;;13.50;99.90;;;;;;5048258;28;20408;-51
2020/12/23 07:38:28;;;;;;;3.00;1.00;;;13.50;99.90;;;;;;5048410;28;20416;-51
2020/12/23 07:40:54;;;;;;;2.88;1.10;;;13.50;99.90;;;;;;5048595;28;20388;-53
2020/12/23 07:43:21;;;;;;;6.10;1.10;;;13.60;99.90;;;;;;5047806;28;20767;-53
2020/12/23 07:45:47;;;;;;;2.83;1.00;;;13.60;99.90;;;;;;5049301;28;20400;-56
2020/12/23 07:48:20;;;;;;;3.30;1.20;;;13.60;99.90;;;;;;5047782;28;20393;-53
2020/12/23 07:50:51;;;;;;;5.27;1.00;;;13.70;99.90;;;;;;5052302;28;20398;-53
2020/12/23 07:53:27;;;;;;;3.50;0.90;;;13.80;99.90;;;;;;5053319;28;20385;-52
2020/12/23 07:55:56;;;;;;;4.10;1.30;;;13.60;99.90;;;;;;5051157;28;20412;-53
2020/12/23 07:58:22;;;;;;;3.80;2.05;;;13.60;99.90;;;;;;5051426;28;20436;-53
2020/12/23 08:00:48;;;;;;;4.30;1.83;;;13.70;99.90;;;;;;5051407;28;20972;-57
2020/12/23 08:03:14;;;;;;;4.00;1.00;;;13.70;99.90;;;;;;5033140;28;20448;-53
2020/12/23 08:05:42;;;;;;;3.45;1.00;;;13.70;99.90;;;;;;5052718;28;20479;-54
2020/12/23 08:08:08;;;;;;;5.50;1.10;;;13.80;99.90;;;;;;5051645;28;20389;-53
2020/12/23 08:10:35;;;;;;;3.50;1.00;;;13.80;99.90;;;;;;5052482;28;20534;-53
2020/12/23 08:13:04;;;;;;;3.20;1.10;;;13.90;99.90;;;;;;5051907;28;20397;-53
2020/12/23 08:15:30;;;;;;;3.10;1.10;;;13.90;99.90;;;;;;5051240;28;20866;-53
2020/12/23 08:18:10;;;;;;;3.30;1.10;;;14.00;99.90;;;;;;5051503;28;20382;-53
2020/12/23 08:20:36;;;;;;;3.13;1.00;;;13.90;99.90;;;;;;5051436;28;20491;-52
2020/12/23 08:23:02;;;;;;;3.33;1.20;;;13.90;99.90;;;;;;5051812;28;20764;-53
2020/12/23 08:25:30;;;;;;;3.30;1.40;;;13.90;99.90;;;;;;5051483;28;20393;-53
2020/12/23 08:27:57;;;;;;;3.63;1.00;;;14.00;99.90;;;;;;5051716;28;20850;-53
2020/12/23 08:30:31;;;;;;;4.13;1.30;;;13.90;99.90;;;;;;5052429;28;20389;-53
2020/12/23 08:33:06;;;;;;;3.30;1.00;;;13.90;99.90;;;;;;5050418;28;20447;-54
2020/12/23 08:35:39;;;;;;;4.20;1.10;;;13.90;99.90;;;;;;5051621;28;20433;-52
2020/12/23 08:38:04;;;;;;;3.83;1.10;;;14.00;99.90;;;;;;5047900;28;20443;-52
2020/12/23 08:40:31;;;;;;;2.95;1.00;;;14.00;99.90;;;;;;5050916;28;20381;-52
2020/12/23 08:42:58;;;;;;;3.30;1.00;;;14.00;99.90;;;;;;5049579;28;20462;-55
2020/12/23 08:45:28;;;;;;;4.90;1.23;;;14.00;99.90;;;;;;5049524;28;20476;-53
2020/12/23 08:47:56;;;;;;;2.92;1.00;;;14.10;99.90;;;;;;5043950;28;20393;-56
2020/12/23 08:50:24;;;;;;;3.30;1.40;;;14.10;99.90;;;;;;5043625;28;20488;-53
2020/12/23 08:52:51;;;;;;;3.47;1.40;;;14.20;99.90;;;;;;5047779;28;20397;-57
2020/12/23 08:55:24;;;;;;;4.40;1.60;;;14.20;99.90;;;;;;5049954;28;20454;-53
2020/12/23 08:57:52;;;;;;;3.08;1.00;;;14.30;99.90;;;;;;5044824;28;20408;-58
2020/12/23 09:00:22;;;;;;;3.42;1.10;;;14.30;99.90;;;;;;5048271;28;20492;-52
2020/12/23 09:02:48;;;;;;;3.00;1.00;;;14.30;99.90;;;;;;5048438;28;20458;-53
2020/12/23 09:05:26;;;;;;;3.10;1.10;;;14.40;99.90;;;;;;5049264;28;20389;-54
2020/12/23 09:08:08;;;;;;;3.10;1.20;;;14.40;99.90;;;;;;5049321;28;20405;-53
2020/12/23 09:10:37;;;;;;;2.80;1.00;;;14.40;99.90;;;;;;5049375;28;20397;-54
2020/12/23 09:13:14;;;;;;;3.78;1.30;;;14.40;99.90;;;;;;5049376;28;20883;-53
2020/12/23 09:15:40;;;;;;;3.05;1.05;;;14.50;99.90;;;;;;5048579;28;20878;-53
2020/12/23 09:18:10;;;;;;;3.47;1.20;;;14.50;99.90;;;;;;5050108;28;20394;-53
2020/12/23 09:20:37;;;;;;;3.30;1.10;;;14.50;99.90;;;;;;5050987;28;20392;-53
2020/12/23 09:23:08;;;;;;;3.03;1.20;;;14.50;99.90;;;;;;5048650;28;20405;-53
2020/12/23 09:25:34;;;;;;;3.60;1.27;;;14.60;99.90;;;;;;5050399;28;20413;-53
2020/12/23 09:28:11;;;;;;;2.90;0.95;;;14.60;99.90;;;;;;5049883;28;20524;-52
2020/12/23 09:30:46;;;;;;;4.40;1.10;;;14.60;99.90;;;;;;5049570;28;20486;-52
2020/12/23 09:33:17;;;;;;;3.28;1.40;;;14.60;99.90;;;;;;5048826;28;20393;-53
2020/12/23 09:35:48;;;;;;;3.80;1.10;;;14.70;99.90;;;;;;5048788;28;20417;-53
2020/12/23 09:38:18;;;;;;;3.40;1.10;;;14.70;99.90;;;;;;5049679;28;20811;-53
2020/12/23 09:40:52;;;;;;;3.03;1.10;;;14.80;99.90;;;;;;5049994;28;20432;-53
2020/12/23 09:43:20;;;;;;;5.32;1.67;;;12.30;99.90;;;;;;5048811;28;20413;-53
2020/12/23 09:45:48;;;;;;;2.83;1.00;;;14.80;99.90;;;;;;5049590;28;20404;-56
2020/12/23 09:48:14;;;;;;;3.10;1.10;;;14.80;99.90;;;;;;5049581;28;20378;-53
2020/12/23 09:50:41;;;;;;;3.80;1.60;;;14.80;99.90;;;;;;5048161;28;20401;-54
2020/12/23 09:53:07;;;;;;;4.10;1.10;;;14.80;99.90;;;;;;5049864;28;20464;-54
2020/12/23 09:55:32;;;;;;;14.75;8.52;;;14.80;99.90;;;;;;5048624;28;20535;-56
2020/12/23 09:57:58;;;;;;;6.70;6.00;;;14.90;99.90;;;;;;5049222;28;20377;-54
2020/12/23 10:00:24;;;;;;;4.00;2.33;;;15.00;99.90;;;;;;5049473;28;20874;-53
2020/12/23 10:02:50;;;;;;;4.72;3.10;;;15.00;99.90;;;;;;5049652;28;20411;-53
2020/12/23 10:05:16;;;;;;;5.93;3.33;;;15.00;99.90;;;;;;5050726;28;20464;-53
2020/12/23 10:07:41;;;;;;;5.10;2.25;;;15.00;99.90;;;;;;5049995;28;20451;-53
2020/12/23 10:10:07;;;;;;;5.00;2.53;;;14.90;99.90;;;;;;5048282;28;20429;-53
2020/12/23 10:12:33;;;;;;;4.60;2.40;;;14.90;99.90;;;;;;5031830;28;20875;-52
2020/12/23 10:14:59;;;;;;;3.72;1.77;;;14.90;99.90;;;;;;5047822;28;20390;-53
2020/12/23 10:17:25;;;;;;;3.80;2.00;;;14.90;99.90;;;;;;5049650;28;20870;-53
2020/12/23 10:19:50;;;;;;;4.20;2.00;;;14.90;99.90;;;;;;5049496;28;20408;-53
2020/12/23 10:22:16;;;;;;;3.17;1.30;;;15.00;99.90;;;;;;5049022;28;20956;-53
2020/12/23 10:24:42;;;;;;;4.20;1.50;;;14.90;99.90;;;;;;5048200;28;20405;-53
2020/12/23 10:27:07;;;;;;;5.28;3.40;;;15.00;99.90;;;;;;5050052;28;20386;-52
2020/12/23 10:29:33;;;;;;;7.73;5.40;;;15.00;99.90;;;;;;5048978;28;20878;-53
2020/12/23 10:31:59;;;;;;;4.78;2.90;;;15.20;99.90;;;;;;5045489;28;20401;-53
2020/12/23 10:34:25;;;;;;;3.88;1.75;;;15.30;99.90;;;;;;5047317;28;20417;-53
2020/12/23 10:36:50;;;;;;;6.82;2.45;;;15.30;99.90;;;;;;5048445;28;20398;-53
2020/12/23 10:39:17;;;;;;;3.47;1.40;;;15.30;99.90;;;;;;5048734;28;20476;-53
2020/12/23 10:41:50;;;;;;;3.33;1.10;;;15.10;99.90;;;;;;5048200;28;20401;-54
2020/12/23 10:44:16;;;;;;;3.97;1.67;;;15.20;99.90;;;;;;5048934;28;20408;-53
2020/12/23 10:46:41;;;;;;;3.30;1.40;;;15.10;99.90;;;;;;5048221;28;20397;-53
2020/12/23 10:49:07;;;;;;;3.50;2.10;;;15.10;99.90;;;;;;5048603;28;20478;-53
2020/12/23 10:51:33;;;;;;;4.00;2.10;;;15.10;99.90;;;;;;5048554;28;20924;-62
2020/12/23 10:53:58;;;;;;;4.28;1.60;;;15.10;99.90;;;;;;5047032;28;20401;-62
2020/12/23 10:56:24;;;;;;;3.70;1.30;;;15.20;99.90;;;;;;5031069;28;20389;-62
2020/12/23 10:58:49;;;;;;;3.87;2.23;;;15.30;99.90;;;;;;5048130;28;20422;-62
2020/12/23 11:01:19;;;;;;;3.50;1.60;;;15.40;99.90;;;;;;5048064;28;20427;-62
2020/12/23 11:03:45;;;;;;;4.90;1.50;;;15.50;99.90;;;;;;5049068;28;20451;-62
2020/12/23 11:06:13;;;;;;;3.60;1.40;;;15.50;99.90;;;;;;5048831;28;20405;-61
2020/12/23 11:08:39;;;;;;;3.95;1.75;;;15.50;99.90;;;;;;5048239;28;20875;-61
2020/12/23 11:11:05;;;;;;;6.50;3.27;;;15.40;99.90;;;;;;5048854;28;20401;-61
2020/12/23 11:13:30;;;;;;;4.50;1.50;;;15.50;99.90;;;;;;5047978;28;20393;-53
2020/12/23 11:15:56;;;;;;;3.93;1.30;;;15.50;99.90;;;;;;5047741;28;20388;-53
2020/12/23 11:18:21;;;;;;;5.80;1.70;;;15.60;99.90;;;;;;5047062;28;20405;-53
2020/12/23 11:20:47;;;;;;;3.70;1.50;;;15.40;99.90;;;;;;5048707;28;20881;-53
2020/12/23 11:23:26;;;;;;;5.50;1.40;;;15.30;99.90;;;;;;5046198;28;20409;-53
2020/12/23 11:25:52;;;;;;;4.53;1.70;;;15.30;99.90;;;;;;5038761;28;20390;-52
2020/12/23 11:28:18;;;;;;;3.45;1.30;;;15.30;99.90;;;;;;5049153;28;20918;-53
2020/12/23 11:30:44;;;;;;;4.90;1.40;;;15.20;99.90;;;;;;5047886;28;20497;-53
2020/12/23 11:33:10;;;;;;;3.65;1.30;;;15.10;99.90;;;;;;5048744;28;20774;-52
2020/12/23 11:35:35;;;;;;;3.90;1.30;;;15.20;99.90;;;;;;5047376;28;20405;-53
2020/12/23 11:38:01;;;;;;;4.57;1.40;;;15.10;99.90;;;;;;5049073;28;20394;-53
2020/12/23 11:40:27;;;;;;;4.07;1.30;;;15.00;99.90;;;;;;5049011;28;20377;-53
2020/12/23 11:42:52;;;;;;;3.00;1.10;;;15.00;99.90;;;;;;5046399;28;20409;-53
2020/12/23 11:45:18;;;;;;;4.60;1.50;;;15.00;99.90;;;;;;5048656;28;20392;-53
2020/12/23 11:47:44;;;;;;;3.70;1.30;;;15.00;99.90;;;;;;5048160;28;20405;-54
2020/12/23 11:50:09;;;;;;;3.30;1.08;;;15.00;99.90;;;;;;5048383;28;20390;-54
2020/12/23 11:52:35;;;;;;;3.60;1.20;;;15.00;99.90;;;;;;5048005;28;20405;-53
2020/12/23 11:55:00;;;;;;;3.40;1.10;;;14.90;99.90;;;;;;5047654;28;20405;-55
2020/12/23 11:57:26;;;;;;;3.28;1.10;;;15.00;99.90;;;;;;5048440;28;20377;-53
2020/12/23 11:59:52;;;;;;;3.40;1.27;;;15.20;99.90;;;;;;5048897;28;20374;-53
2020/12/23 12:02:17;;;;;;;3.00;1.20;;;15.10;99.90;;;;;;5046398;28;20393;-53
2020/12/23 12:04:43;;;;;;;4.45;1.40;;;15.10;99.90;;;;;;5046952;28;20849;-53
2020/12/23 12:07:09;;;;;;;3.90;1.00;;;14.90;99.90;;;;;;5046574;28;20451;-53
2020/12/23 12:09:34;;;;;;;3.20;1.10;;;15.00;99.90;;;;;;5048207;28;20390;-51
2020/12/23 12:12:00;;;;;;;4.37;1.40;;;15.00;99.90;;;;;;5044761;28;20397;-53
2020/12/23 12:14:26;;;;;;;5.10;1.20;;;15.10;99.90;;;;;;5049071;28;20863;-54
2020/12/23 12:16:51;;;;;;;3.40;1.20;;;15.10;99.90;;;;;;5047884;28;20404;-53
2020/12/23 12:19:17;;;;;;;4.70;1.40;;;15.10;99.90;;;;;;5046592;28;20397;-55
2020/12/23 12:21:42;;;;;;;3.40;1.20;;;15.10;99.90;;;;;;5044565;28;20393;-53
2020/12/23 12:24:08;;;;;;;3.72;1.20;;;15.10;99.90;;;;;;5045011;28;20413;-54
2020/12/23 12:26:34;;;;;;;3.40;1.20;;;15.00;99.90;;;;;;5046574;28;20381;-54
2020/12/23 12:29:01;;;;;;;3.20;1.20;;;15.00;99.90;;;;;;5043836;28;20397;-58
2020/12/23 12:31:28;;;;;;;4.03;1.55;;;15.00;99.90;;;;;;5045179;28;20396;-55
2020/12/23 12:33:54;;;;;;;3.20;1.30;;;15.10;99.90;;;;;;5041446;28;20867;-53
2020/12/23 12:36:21;;;;;;;3.80;1.30;;;15.10;99.90;;;;;;5035923;28;20403;-53
2020/12/23 12:38:47;;;;;;;5.75;1.40;;;15.00;99.90;;;;;;5042828;28;20384;-53
2020/12/23 12:41:13;;;;;;;3.50;1.30;;;15.00;99.90;;;;;;5049003;28;20858;-54
2020/12/23 12:43:38;;;;;;;4.80;1.65;;;15.00;99.90;;;;;;5031072;28;20585;-53
2020/12/23 12:46:07;;;;;;;4.03;1.83;;;15.10;99.90;;;;;;5031582;28;20406;-54
2020/12/23 12:48:32;;;;;;;4.30;1.50;;;15.10;99.90;;;;;;5037840;28;20402;-53
2020/12/23 12:50:58;;;;;;;4.30;1.63;;;15.00;99.90;;;;;;5037270;28;20403;-57